Time;durP1;ratioP1;P1;durP2;ratioP2;P2;SDS_P1;SDS_P2;PMS_P1;PMS_P2;Temp;Humidity;BMP_temperature;BMP_pressure;BME280_temperature;BME280_humidity;BME280_pressure;Samples;Min_cycle;Max_cycle;Signal;HPM_P1;HPM_P2
2023/03/14 00:03:47;;;;;;;10.00;3.10;;;;;;;11.11;68.77;96141.06;9896969;30;20083;-77
2023/03/14 00:09:44;;;;;;;7.18;3.13;;;;;;;11.08;68.64;96139.53;9908400;30;20059;-77
2023/03/14 00:15:11;;;;;;;4.53;2.92;;;;;;;10.97;68.40;96157.25;9889611;30;20059;-77
2023/03/14 00:20:35;;;;;;;6.68;3.40;;;;;;;10.98;68.59;96141.22;9903538;30;20079;-77
2023/03/14 00:26:34;;;;;;;8.38;2.90;;;;;;;10.95;69.50;96120.88;9891106;30;20086;-77
2023/03/14 00:31:57;;;;;;;5.82;3.03;;;;;;;10.92;69.22;96105.41;9915035;30;20083;-77
2023/03/14 00:37:47;;;;;;;6.05;3.13;;;;;;;10.95;69.48;96104.13;9907385;30;20130;-77
2023/03/14 00:43:11;;;;;;;7.35;3.10;;;;;;;10.91;70.57;96031.41;9877903;30;20130;-77
2023/03/14 00:48:33;;;;;;;6.53;3.03;;;;;;;10.57;73.19;96009.16;9902270;30;20117;-77
2023/03/14 00:54:24;;;;;;;5.13;3.25;;;;;;;9.61;80.74;95939.66;9897257;30;20470;-78
2023/03/14 00:59:55;;;;;;;5.45;2.60;;;;;;;9.28;84.71;95962.63;9890005;30;20145;-77
2023/03/14 01:05:50;;;;;;;6.32;2.25;;;;;;;9.36;81.47;95935.88;9895667;30;20055;-77
2023/03/14 01:11:31;;;;;;;6.47;2.33;;;;;;;9.57;81.98;95904.00;9900956;30;20502;-77
2023/03/14 01:16:52;;;;;;;5.03;2.83;;;;;;;9.64;82.81;95888.25;9888011;30;20530;-77
2023/03/14 01:22:47;;;;;;;7.07;2.97;;;;;;;9.56;82.56;95919.28;9894213;29;20063;-77
2023/03/14 01:28:36;;;;;;;4.10;2.50;;;;;;;9.53;80.98;95911.47;9905238;30;20059;-77
2023/03/14 01:34:25;;;;;;;5.72;2.17;;;;;;;9.61;81.30;95901.38;9894554;30;20059;-77
2023/03/14 01:39:54;;;;;;;5.50;2.72;;;;;;;9.69;81.36;95892.66;9887814;30;20060;-77
2023/03/14 01:53:21;;;;;;;3.65;1.55;;;;;;;9.78;80.60;95874.19;9912577;30;20051;-77
2023/03/14 01:59:10;;;;;;;3.67;1.95;;;;;;;9.90;78.96;95866.31;9889739;29;20067;-77
2023/03/14 02:04:34;;;;;;;2.50;1.40;;;;;;;10.10;79.27;95874.78;9875090;30;20087;-77
2023/03/14 02:09:55;;;;;;;3.58;1.70;;;;;;;10.27;79.69;95863.63;9900257;30;20138;-77
2023/03/14 02:15:48;;;;;;;2.47;1.23;;;;;;;10.45;79.50;95862.91;9903146;30;20055;-77
2023/03/14 02:22:14;;;;;;;3.03;1.20;;;;;;;10.55;79.50;95874.44;9903890;29;20080;-78
2023/03/14 02:28:36;;;;;;;4.38;1.40;;;;;;;10.58;79.30;95901.78;9937112;29;20062;-78
2023/03/14 02:34:04;;;;;;;3.15;1.25;;;;;;;10.71;78.79;95905.75;9919956;29;20063;-77
2023/03/14 02:39:41;;;;;;;3.53;1.00;;;;;;;10.82;78.50;95915.22;9919519;29;20074;-77
2023/03/14 02:45:08;;;;;;;2.45;0.90;;;;;;;10.85;78.54;95897.19;9920529;29;20101;-77
2023/03/14 02:51:30;;;;;;;1.90;0.77;;;;;;;10.88;78.07;95873.56;9913489;29;20463;-77
2023/03/14 02:56:52;;;;;;;2.60;1.10;;;;;;;10.85;77.63;95847.66;9906570;30;20278;-77
2023/03/14 03:02:13;;;;;;;2.97;1.48;;;;;;;10.75;78.06;95813.81;9881116;30;20067;-77
2023/03/14 03:07:34;;;;;;;2.67;1.70;;;;;;;10.70;78.65;95814.28;9881689;30;20424;-77
2023/03/14 03:12:54;;;;;;;3.03;1.10;;;;;;;10.68;78.62;95836.53;9893995;29;20483;-77
2023/03/14 03:18:47;;;;;;;3.33;0.73;;;;;;;10.64;78.07;95817.59;9898650;30;20051;-77
2023/03/14 03:24:08;;;;;;;1.23;0.45;;;;;;;10.69;77.98;95810.78;9885374;30;20055;-77
2023/03/14 03:29:35;;;;;;;2.50;0.85;;;;;;;10.76;78.04;95803.34;9897045;30;20097;-77
2023/03/14 03:35:25;;;;;;;1.42;0.60;;;;;;;10.78;77.85;95803.41;9890970;30;20059;-77
2023/03/14 03:40:48;;;;;;;1.57;0.40;;;;;;;10.78;77.86;95803.41;9896976;30;20083;-77
2023/03/14 03:47:06;;;;;;;1.85;0.90;;;;;;;10.72;77.75;95819.97;9916176;29;20293;-77
2023/03/14 03:53:04;;;;;;;1.38;0.50;;;;;;;10.76;77.57;95840.34;9899514;30;20479;-77
2023/03/14 03:58:54;;;;;;;1.35;0.38;;;;;;;10.85;76.51;95830.91;9909916;29;20059;-77
2023/03/14 04:04:43;;;;;;;1.45;0.30;;;;;;;10.91;76.80;95835.28;9891476;30;20055;-77
2023/03/14 04:10:05;;;;;;;0.80;0.20;;;;;;;10.96;76.71;95834.78;9896068;30;20059;-77
2023/03/14 04:15:59;;;;;;;0.30;0.10;;;;;;;11.01;76.50;95852.41;9893421;30;20063;-77
2023/03/14 04:23:02;;;;;;;1.23;0.20;;;;;;;11.01;76.15;95849.59;9884193;30;20093;-77
2023/03/14 04:28:53;;;;;;;0.75;0.20;;;;;;;10.94;75.98;95834.72;9909806;30;20130;-77
2023/03/14 04:35:16;;;;;;;1.20;0.50;;;;;;;10.80;76.21;95823.03;9908197;30;20110;-77
2023/03/14 04:40:38;;;;;;;0.90;0.47;;;;;;;10.65;76.09;95837.84;9883775;30;20079;-77
2023/03/14 04:46:31;;;;;;;1.08;0.40;;;;;;;10.64;76.18;95839.91;9902057;30;20059;-77
2023/03/14 04:52:28;;;;;;;1.85;0.38;;;;;;;10.54;76.28;95845.84;9900016;30;20395;-78
2023/03/14 04:58:18;;;;;;;0.93;0.32;;;;;;;10.54;76.41;95848.63;9882789;29;20066;-78
2023/03/14 05:03:43;;;;;;;2.97;0.40;;;;;;;10.55;76.66;95841.69;9890481;30;20090;-77
2023/03/14 05:10:06;;;;;;;0.67;0.30;;;;;;;10.57;76.76;95818.72;9903985;30;20060;-77
2023/03/14 05:16:31;;;;;;;0.60;0.10;;;;;;;10.50;76.61;95808.69;9870533;30;20064;-78
2023/03/14 05:22:05;;;;;;;0.40;0.10;;;;;;;10.41;76.37;95813.25;9866761;29;20082;-78
2023/03/14 05:27:26;;;;;;;1.77;0.20;;;;;;;10.42;75.94;95809.13;9913406;30;20063;-77
2023/03/14 05:33:13;;;;;;;1.50;0.30;;;;;;;10.43;75.83;95810.56;9904402;30;20070;-77
2023/03/14 05:38:54;;;;;;;0.63;0.20;;;;;;;10.54;75.47;95820.72;9904204;30;20056;-77
2023/03/14 05:44:23;;;;;;;0.60;0.30;;;;;;;10.61;75.65;95816.06;9901690;30;20063;-77
2023/03/14 05:49:55;;;;;;;1.05;0.30;;;;;;;10.64;75.14;95820.38;9879075;30;20082;-77
2023/03/14 05:56:17;;;;;;;1.67;0.30;;;;;;;10.64;75.00;95817.59;9937148;29;20058;-77
2023/03/14 06:01:58;;;;;;;1.33;0.32;;;;;;;10.62;74.71;95820.31;9900450;29;20127;-78
2023/03/14 06:07:50;;;;;;;1.58;0.20;;;;;;;10.67;74.62;95798.84;9928730;29;20058;-77
2023/03/14 06:13:13;;;;;;;0.73;0.20;;;;;;;10.71;74.62;95801.75;9910003;29;20066;-77
2023/03/14 06:18:36;;;;;;;3.03;0.28;;;;;;;10.77;74.27;95822.25;9909868;29;20437;-77
2023/03/14 06:24:37;;;;;;;1.15;0.43;;;;;;;10.85;74.13;95830.19;9915308;29;20089;-77
2023/03/14 06:30:27;;;;;;;1.08;0.30;;;;;;;10.97;73.69;95841.78;9894142;30;20055;-77
2023/03/14 06:36:57;;;;;;;1.58;0.20;;;;;;;11.08;72.98;95851.94;9895198;30;20403;-78
2023/03/14 06:42:54;;;;;;;0.60;0.20;;;;;;;11.22;72.74;95853.81;9903596;30;20059;-77
2023/03/14 06:48:16;;;;;;;1.70;0.20;;;;;;;11.43;72.64;95850.34;9901384;30;20051;-76
2023/03/14 06:55:16;;;;;;;1.10;0.50;;;;;;;11.73;71.53;95851.34;9893117;30;20487;-76
2023/03/14 07:01:05;;;;;;;2.13;0.40;;;;;;;11.90;70.24;95861.03;9911503;29;20051;-76
2023/03/14 07:06:33;;;;;;;1.05;0.30;;;;;;;11.94;70.04;95880.72;9886999;30;20312;-77
2023/03/14 07:12:06;;;;;;;0.45;0.20;;;;;;;11.84;69.78;95871.28;9888774;30;20403;-77
2023/03/14 07:17:56;;;;;;;0.65;0.30;;;;;;;11.96;68.91;95866.06;9900756;30;20543;-77
2023/03/14 07:23:21;;;;;;;1.63;0.50;;;;;;;12.30;68.84;95852.47;9897422;30;20088;-77
2023/03/14 07:28:51;;;;;;;2.08;0.70;;;;;;;12.84;67.87;95864.56;9897827;30;20484;-77
2023/03/14 07:34:21;;;;;;;0.70;0.30;;;;;;;12.82;66.15;95864.50;9885813;30;20143;-76
2023/03/14 07:40:25;;;;;;;0.95;0.40;;;;;;;12.79;64.84;95867.91;9885018;30;20085;-76
2023/03/14 07:46:20;;;;;;;0.60;0.20;;;;;;;12.87;65.34;95874.44;9896425;30;20122;-76
2023/03/14 07:52:09;;;;;;;0.95;0.30;;;;;;;13.04;64.30;95864.44;9901932;30;20105;-77
2023/03/14 07:58:00;;;;;;;2.65;0.22;;;;;;;13.39;63.84;95863.28;9892771;30;20059;-77
2023/03/14 08:03:20;;;;;;;0.88;0.40;;;;;;;13.48;62.89;95878.22;9897589;30;20459;-77
2023/03/14 08:09:09;;;;;;;0.98;0.22;;;;;;;13.93;62.10;95868.16;9892072;30;20059;-77
2023/03/14 08:15:01;;;;;;;1.58;0.20;;;;;;;14.40;60.58;95874.88;9910636;30;20411;-76
2023/03/14 08:20:53;;;;;;;0.50;0.08;;;;;;;14.32;59.30;95870.50;9892258;30;20051;-77
2023/03/14 08:26:45;;;;;;;0.50;0.20;;;;;;;13.91;58.55;95874.44;9902949;30;20055;-77
2023/03/14 08:32:35;;;;;;;2.00;0.30;;;;;;;13.60;58.68;95875.03;9900644;29;20051;-76
2023/03/14 08:37:56;;;;;;;2.80;0.40;;;;;;;13.71;59.36;95879.53;9904623;30;20120;-78
2023/03/14 08:43:22;;;;;;;2.80;0.30;;;;;;;14.15;57.97;95884.81;9893976;30;20086;-77
2023/03/14 08:48:47;;;;;;;0.40;0.20;;;;;;;14.67;56.06;95895.84;9904376;29;20047;-82
2023/03/14 08:54:36;;;;;;;2.45;0.20;;;;;;;14.30;54.88;95886.59;9902567;30;20063;-79
2023/03/14 09:01:30;;;;;;;1.88;0.40;;;;;;;14.43;54.10;95899.50;9908613;30;20483;-78
2023/03/14 09:07:54;;;;;;;1.95;0.38;;;;;;;13.83;54.81;95910.69;9878951;30;20476;-78
2023/03/14 09:14:19;;;;;;;1.85;0.30;;;;;;;13.86;54.61;95923.38;9868764;30;20059;-78
2023/03/14 09:21:15;;;;;;;4.03;0.30;;;;;;;14.40;52.84;95914.88;9868059;30;20487;-78
2023/03/14 09:51:34;;;;;;;2.83;0.20;;;;;;;14.40;50.58;95891.72;9877553;30;20533;-78
2023/03/14 09:57:59;;;;;;;3.35;0.30;;;;;;;14.11;50.45;95888.25;9881084;30;20075;-79
2023/03/14 10:04:22;;;;;;;3.63;0.32;;;;;;;14.01;50.91;95888.72;9880191;30;20059;-79
2023/03/14 10:10:26;;;;;;;2.33;0.30;;;;;;;13.95;51.22;95899.78;9916100;30;20083;-79
2023/03/14 10:17:18;;;;;;;1.60;0.25;;;;;;;13.81;51.10;95890.31;9905334;30;20411;-79
2023/03/14 10:30:57;;;;;;;3.72;0.43;;;;;;;13.77;51.30;95887.38;9920571;30;19972;-81
2023/03/14 10:36:52;;;;;;;1.17;0.15;;;;;;;13.54;51.00;95881.22;9951891;29;20039;-77
2023/03/14 10:42:42;;;;;;;1.77;0.30;;;;;;;13.40;51.57;95875.91;9903313;30;20055;-77
2023/03/14 10:48:37;;;;;;;2.22;0.30;;;;;;;13.42;51.57;95881.59;9894836;30;20059;-79
2023/03/14 10:55:01;;;;;;;0.88;0.20;;;;;;;13.25;51.47;95873.41;9915860;29;20059;-81
2023/03/14 11:02:01;;;;;;;2.40;0.30;;;;;;;13.25;51.78;95895.84;9925930;29;20051;-79
2023/03/14 11:07:52;;;;;;;2.58;0.22;;;;;;;13.05;52.05;95884.75;9910009;29;20059;-80
2023/03/14 11:22:13;;;;;;;1.60;0.20;;;;;;;13.30;51.89;95889.66;9927892;30;20048;-81
2023/03/14 11:29:14;;;;;;;3.47;0.30;;;;;;;13.51;51.01;95890.94;9949721;29;20059;-79
2023/03/14 11:43:26;;;;;;;1.15;0.17;;;;;;;13.19;51.34;95871.16;9909360;30;20052;-76
2023/03/14 11:49:18;;;;;;;1.30;0.25;;;;;;;13.08;51.58;95870.13;9886214;30;20131;-78
2023/03/14 12:03:45;;;;;;;2.40;0.20;;;;;;;13.23;50.91;95864.97;9912676;30;20055;-77
2023/03/14 12:10:45;;;;;;;4.72;0.57;;;;;;;13.38;50.92;95856.25;9884062;29;20138;-78
2023/03/14 12:16:36;;;;;;;1.20;0.30;;;;;;;13.52;50.52;95852.41;9916786;30;20059;-78
2023/03/14 12:23:03;;;;;;;0.73;0.15;;;;;;;13.45;50.25;95860.66;9900864;30;20055;-77
2023/03/14 12:28:32;;;;;;;2.10;0.20;;;;;;;13.64;50.15;95849.91;9904997;30;20075;-78
2023/03/14 12:42:28;;;;;;;2.17;0.20;;;;;;;13.77;49.36;95837.63;9922101;30;20043;-78
2023/03/14 12:49:33;;;;;;;4.90;0.30;;;;;;;14.13;48.37;95832.19;9877095;29;20067;-79
2023/03/14 12:55:36;;;;;;;1.00;0.20;;;;;;;14.02;48.37;95822.81;9849211;30;20487;-77
2023/03/14 13:01:00;;;;;;;1.98;0.35;;;;;;;13.93;48.04;95821.19;9853439;29;20057;-81
2023/03/14 13:14:48;;;;;;;5.25;0.50;;;;;;;14.23;47.51;95818.38;10261990;24;20031;-83
2023/03/14 13:20:14;;;;;;;1.25;0.20;;;;;;;14.04;47.20;95800.41;9896566;29;20423;-76
2023/03/14 13:25:40;;;;;;;3.50;0.20;;;;;;;13.91;47.64;95801.53;9862849;30;20082;-76
2023/03/14 13:31:02;;;;;;;1.80;0.20;;;;;;;14.07;47.33;95794.84;9849860;30;20100;-76
2023/03/14 13:36:23;;;;;;;0.82;0.20;;;;;;;14.17;47.11;95795.06;9896315;30;20112;-76
2023/03/14 13:41:45;;;;;;;0.70;0.25;;;;;;;14.42;46.73;95790.72;9871963;30;20451;-75
2023/03/14 13:47:14;;;;;;;0.70;0.20;;;;;;;14.68;46.69;95780.06;9862333;30;20076;-75
2023/03/14 13:52:36;;;;;;;0.90;0.20;;;;;;;14.78;46.32;95785.19;9850745;30;20117;-76
2023/03/14 13:57:57;;;;;;;0.77;0.20;;;;;;;14.73;46.09;95792.09;9862323;30;20113;-76
2023/03/14 14:03:17;;;;;;;1.40;0.20;;;;;;;14.43;46.57;95784.44;9874334;30;20052;-76
2023/03/14 14:08:40;;;;;;;2.15;0.28;;;;;;;14.49;46.60;95793.03;9874017;30;20075;-75
2023/03/14 14:14:01;;;;;;;0.68;0.10;;;;;;;14.16;46.48;95802.78;9849425;30;20063;-76
2023/03/14 14:19:22;;;;;;;0.68;0.13;;;;;;;13.75;47.10;95815.84;9873784;30;20059;-75
2023/03/14 14:24:43;;;;;;;2.33;0.47;;;;;;;13.45;49.45;95827.03;9848473;30;20198;-76
2023/03/14 14:30:06;;;;;;;1.13;0.28;;;;;;;13.09;53.52;95837.22;9848600;30;20063;-76
2023/03/14 14:35:34;;;;;;;2.15;0.30;;;;;;;12.55;57.87;95814.75;9848380;30;20504;-76
2023/03/14 14:40:59;;;;;;;1.17;0.30;;;;;;;12.92;55.91;95813.66;9848064;30;20064;-76
2023/03/14 14:46:20;;;;;;;0.73;0.25;;;;;;;13.45;56.53;95804.59;9860256;30;20051;-76
2023/03/14 14:51:50;;;;;;;2.50;0.47;;;;;;;13.63;58.37;95789.63;9847554;30;20051;-76
2023/03/14 14:57:22;;;;;;;3.80;0.50;;;;;;;13.62;58.19;95793.81;9858923;30;20083;-76
2023/03/14 15:02:46;;;;;;;2.25;0.50;;;;;;;13.52;58.05;95785.16;9862325;30;20066;-80
2023/03/14 15:08:37;;;;;;;1.75;0.50;;;;;;;13.43;58.15;95789.84;9867951;30;20411;-77
2023/03/14 15:15:02;;;;;;;2.20;0.43;;;;;;;13.13;59.00;95792.53;10807591;24;20019;-76
2023/03/14 15:20:23;;;;;;;3.72;0.63;;;;;;;12.82;59.90;95793.78;9785495;30;20095;-85
2023/03/14 15:25:45;;;;;;;2.92;0.50;;;;;;;12.72;61.32;95807.50;9748646;30;20085;-78
2023/03/14 15:31:17;;;;;;;2.03;0.60;;;;;;;12.67;62.12;95798.28;9725752;30;20065;-80
2023/03/14 15:36:38;;;;;;;1.63;0.80;;;;;;;12.82;61.18;95791.69;9708890;30;20066;-78
2023/03/14 15:41:59;;;;;;;2.08;0.40;;;;;;;12.81;61.69;95789.56;9736150;30;20147;-79
2023/03/14 15:47:20;;;;;;;2.85;1.05;;;;;;;12.86;61.97;95789.03;9740542;30;20061;-79
2023/03/14 15:52:41;;;;;;;3.15;0.60;;;;;;;12.80;62.96;95793.75;9764255;30;20065;-79
2023/03/14 15:58:02;;;;;;;1.45;0.40;;;;;;;12.63;62.01;95797.44;9752023;30;20061;-80
2023/03/14 16:03:30;;;;;;;1.88;0.50;;;;;;;12.42;62.55;95799.66;9757591;30;20072;-79
2023/03/14 16:08:51;;;;;;;1.10;0.50;;;;;;;12.10;62.71;95784.72;9788296;30;20064;-81
2023/03/14 16:14:11;;;;;;;1.85;0.68;;;;;;;11.87;63.68;95788.91;9769670;30;20065;-85
2023/03/14 16:19:32;;;;;;;1.35;0.45;;;;;;;11.68;63.86;95793.91;9737125;30;1433746;-84
2023/03/14 16:24:53;;;;;;;0.98;0.38;;;;;;;11.53;64.29;95788.50;9785894;30;20061;-81
2023/03/14 16:30:42;;;;;;;2.05;0.50;;;;;;;11.48;65.06;95807.19;9778956;30;20501;-76
2023/03/14 16:36:07;;;;;;;1.30;0.55;;;;;;;11.46;64.69;95810.66;9776250;30;20064;-78
2023/03/14 16:41:30;;;;;;;2.13;0.60;;;;;;;11.40;65.30;95798.56;9750825;30;20077;-78
2023/03/14 16:46:51;;;;;;;2.28;0.88;;;;;;;11.37;65.07;95811.03;9761935;30;20099;-78
2023/03/14 16:52:11;;;;;;;2.38;0.70;;;;;;;11.37;65.59;95831.28;9738938;30;20077;-78
2023/03/14 16:57:33;;;;;;;2.42;1.08;;;;;;;11.37;66.54;95866.91;9777687;30;20080;-85
2023/03/14 17:03:14;;;;;;;1.15;0.40;;;;;;;10.86;68.95;95873.50;9981105;24;20067;-79
2023/03/14 17:08:35;;;;;;;4.00;0.40;;;;;;;10.39;69.60;95871.75;9855292;30;20070;-79
2023/03/14 17:13:56;;;;;;;3.42;0.43;;;;;;;10.15;70.27;95881.94;9840358;30;20056;-76
2023/03/14 17:19:17;;;;;;;1.25;0.20;;;;;;;9.96;71.28;95919.53;9851849;30;20060;-76
2023/03/14 17:24:39;;;;;;;0.52;0.20;;;;;;;9.90;71.77;95936.72;9852553;30;20152;-76
2023/03/14 17:30:00;;;;;;;0.75;0.10;;;;;;;9.82;72.54;95930.09;10287278;24;20078;-78
2023/03/14 17:35:21;;;;;;;3.28;0.20;;;;;;;9.68;73.38;95944.88;9887429;30;20047;-77
2023/03/14 17:40:46;;;;;;;0.68;0.30;;;;;;;9.64;73.72;95949.53;9887145;30;20055;-77
2023/03/14 17:52:23;;;;;;;2.28;0.38;;;;;;;9.59;75.17;95976.53;10435633;24;20063;-82
2023/03/14 17:57:44;;;;;;;2.90;0.30;;;;;;;9.58;74.56;95979.94;9917741;30;20043;-82
2023/03/14 18:03:30;;;;;;;1.20;0.30;;;;;;;9.62;74.58;96003.09;10655936;24;21132;31
2023/03/14 18:08:57;;;;;;;1.95;0.30;;;;;;;9.58;74.77;96032.88;9826126;29;20044;-82
2023/03/14 18:14:22;;;;;;;0.68;0.20;;;;;;;9.53;74.47;96073.72;9793715;30;20056;-76
2023/03/14 18:19:42;;;;;;;1.70;0.10;;;;;;;9.41;73.17;96135.19;9795607;30;20044;-83
2023/03/14 18:25:04;;;;;;;1.23;0.10;;;;;;;9.27;72.28;96179.09;9806312;30;20036;-81
2023/03/14 18:30:25;;;;;;;0.38;0.08;;;;;;;9.05;72.42;96217.69;9768848;30;20065;-78
2023/03/14 18:48:26;;;;;;;2.25;0.20;;;;;;;8.55;69.90;96302.13;10311999;24;20063;-77
2023/03/14 19:00:05;;;;;;;0.20;0.10;;;;;;;8.42;70.42;96338.97;10253434;24;20119;-80
2023/03/14 19:05:26;;;;;;;0.20;0.10;;;;;;;8.42;69.09;96361.22;9901002;30;20479;-77
2023/03/14 19:11:07;;;;;;;0.70;0.20;;;;;;;8.33;67.09;96380.22;9893875;29;20105;-81
2023/03/14 19:17:10;;;;;;;0.20;0.10;;;;;;;8.24;67.46;96406.13;10706577;24;20065;-77
2023/03/14 19:22:31;;;;;;;0.40;0.10;;;;;;;7.99;66.36;96439.47;9895383;29;20055;-78
2023/03/14 19:27:52;;;;;;;0.20;0.10;;;;;;;7.86;66.50;96437.34;9911446;29;20063;-80
2023/03/14 19:33:18;;;;;;;0.52;0.20;;;;;;;7.70;65.94;96476.00;9915812;29;20065;-80
2023/03/14 19:45:31;;;;;;;0.68;0.30;;;;;;;7.49;65.65;96523.38;10152937;24;20631;-82
2023/03/14 19:51:02;;;;;;;0.93;0.30;;;;;;;7.42;64.79;96555.59;9894720;30;20063;-78
2023/03/14 19:56:23;;;;;;;0.50;0.20;;;;;;;7.32;64.24;96560.53;9882572;30;20132;-78
2023/03/14 20:01:47;;;;;;;0.70;0.10;;;;;;;7.27;63.62;96581.78;9882262;30;20066;-78
2023/03/14 20:07:09;;;;;;;0.90;0.20;;;;;;;7.21;63.85;96605.66;9895160;30;20113;-77
2023/03/14 20:12:30;;;;;;;0.45;0.20;;;;;;;7.17;63.20;96633.88;9884289;30;20535;-77
2023/03/14 20:17:51;;;;;;;0.93;0.20;;;;;;;7.14;63.03;96641.34;9882388;30;20113;-77
2023/03/14 20:23:13;;;;;;;0.60;0.30;;;;;;;7.15;63.91;96656.69;9858045;30;20056;-77
2023/03/14 20:28:34;;;;;;;1.13;0.30;;;;;;;7.06;63.22;96682.47;9871626;30;20063;-77
2023/03/14 20:33:55;;;;;;;0.70;0.20;;;;;;;6.99;64.34;96691.72;9859659;29;20109;-77
2023/03/14 20:39:15;;;;;;;0.82;0.30;;;;;;;6.86;62.72;96711.69;9880179;30;20059;-77
2023/03/14 20:44:36;;;;;;;1.73;0.40;;;;;;;6.82;62.52;96728.06;9892537;29;20130;-77
2023/03/14 20:49:57;;;;;;;2.63;0.47;;;;;;;6.73;62.69;96756.56;9878807;30;20047;-77
2023/03/14 20:55:18;;;;;;;4.25;0.57;;;;;;;6.66;61.93;96769.31;9873284;30;20070;-77
2023/03/14 21:00:39;;;;;;;2.15;0.57;;;;;;;6.61;61.53;96787.00;9880329;30;20077;-77
2023/03/14 21:06:01;;;;;;;6.57;0.82;;;;;;;6.58;62.05;96786.16;9912911;29;20095;-78
2023/03/14 21:11:21;;;;;;;4.15;0.70;;;;;;;6.59;61.80;96804.22;9866730;29;20487;-77
2023/03/14 21:16:42;;;;;;;2.70;0.70;;;;;;;6.54;61.53;96799.72;9893597;29;20087;-77
2023/03/14 21:22:04;;;;;;;5.45;0.88;;;;;;;6.43;60.42;96805.91;9909119;29;20056;-77
2023/03/14 21:27:24;;;;;;;3.95;0.73;;;;;;;6.40;60.69;96823.00;9888104;30;20056;-77
2023/03/14 21:32:45;;;;;;;8.00;0.93;;;;;;;6.27;60.51;96830.47;9888618;30;20056;-77
2023/03/14 21:38:06;;;;;;;5.80;1.95;;;;;;;6.25;60.11;96840.69;9875804;30;20109;-77
2023/03/14 21:43:27;;;;;;;4.55;0.98;;;;;;;6.22;59.34;96847.41;9889983;29;20426;-77
2023/03/14 21:48:52;;;;;;;6.30;0.80;;;;;;;6.21;59.91;96848.72;9870721;30;20047;-78
